Track Вяткина Марина

Time Latitude Longitude Accuracy (66% radius in meters) Altitude (meters) Speed (km/hour) Bearing (degrees) Battery (%) GPS flag
08:39:25 60.370993 29.556427 8 61 0 53.746482849121 38 1 delete
08:39:22 60.370991 29.556425 8 68 0.3071396946907 53.746482849121 38 1 delete
08:39:13 60.370991 29.556346 8 74 0 211.4822845459 38 1 delete
08:39:01 60.370992 29.556313 6 70 0 238.1291809082 38 1 delete
08:38:48 60.370973 29.556334 6 76 0 208.96105957031 38 1 delete
08:38:34 60.370976 29.556357 6 62 0 221.11595153809 38 1 delete
08:38:22 60.370983 29.556337 6 71 0 36.353515625 38 1 delete
08:38:10 60.370971 29.556362 8 77 0 36.353515625 38 1 delete
08:37:57 60.370992 29.556331 6 78 0 207.072265625 38 1 delete
08:37:44 60.370973 29.556317 6 78 0 207.072265625 38 1 delete
08:37:42 60.370968 29.556344 6 74 0 207.072265625 38 1 delete
08:37:32 60.370992 29.556425 6 69 0 29.132112503052 38 1 delete
08:37:30 60.370991 29.556433 8 69 0 29.132112503052 38 1 delete
08:37:19 60.370955 29.556403 6 58 0 20.495294570923 38 1 delete
08:37:07 60.370955 29.556431 6 64 0 20.495294570923 38 1 delete
08:36:54 60.370971 29.556416 6 67 0 20.495294570923 38 1 delete
08:36:41 60.370948 29.556385 8 59 0 214.0853729248 38 1 delete
08:36:28 60.370930 29.556384 6 67 0.35439676046371 217.751953125 38 1 delete
08:36:19 60.370950 29.556398 8 58 0 38.967254638672 38 1 delete
08:36:15 60.370962 29.556396 8 58 0 38.967254638672 38 1 delete
08:36:03 60.370964 29.556379 8 69 0 38.967254638672 38 1 delete
08:35:52 60.370957 29.556308 6 74 0 228.98635864258 38 1 delete
08:35:51 60.370957 29.556303 6 76 0 228.98635864258 38 1 delete
08:35:38 60.370952 29.556246 4 77 0 228.98635864258 38 1 delete
08:35:24 60.370944 29.556233 4 78 0 202.85211181641 38 1 delete
08:35:20 60.370941 29.556223 8 78 0 202.85211181641 38 1 delete
08:35:11 60.370929 29.556243 6 76 0 359.40884399414 38 1 delete
08:34:58 60.370907 29.556218 6 76 0 359.40884399414 38 1 delete
08:34:46 60.370901 29.556240 6 74 0 8.1866683959961 38 1 delete
08:34:33 60.370895 29.556227 6 84 0 307.8464050293 38 1 delete
08:34:20 60.370910 29.556168 6 77 0 30.495391845703 38 1 delete
08:34:11 60.370931 29.556160 6 88 0 30.495391845703 38 1 delete
08:34:05 60.370975 29.556169 8 89 0.36837863922119 30.495391845703 38 1 delete
08:34:04 60.370977 29.556171 8 87 0.055446323007345 12.52047252655 38 1 delete
08:33:54 60.370929 29.556173 8 88 0 176.08235168457 38 1 delete
08:33:52 60.370910 29.556180 8 86 0 176.08235168457 38 1 delete
08:33:40 60.370884 29.556141 6 73 0 218.72166442871 38 1 delete
08:33:32 60.370883 29.556160 16 79 0 289.54144287109 38 1 delete
08:33:28 60.370856 29.556172 8 79 0 289.54144287109 38 1 delete
08:33:18 60.370850 29.556224 6 80 0 351.76336669922 38 1 delete
08:33:16 60.370852 29.556267 8 76 0 351.76336669922 38 1 delete
08:33:07 60.370862 29.556329 12 71 0.053609926253557 209.54920959473 38 1 delete
08:33:03 60.370890 29.556337 8 69 0 16.396696090698 38 1 delete
08:33:01 60.370910 29.556328 8 71 0 16.396696090698 38 1 delete
08:32:50 60.370954 29.556287 8 83 0.35844123363495 224.94454956055 38 1 delete
08:32:38 60.370953 29.556256 6 78 0.36063086986542 15.947435379028 38 1 delete
08:32:26 60.370925 29.556206 8 75 0 26.161556243896 38 1 delete
08:32:14 60.370943 29.556255 8 84 0 26.161556243896 38 1 delete
08:32:13 60.370946 29.556266 8 81 0 26.161556243896 38 1 delete
08:32:00 60.370969 29.556329 6 67 0.37514260411263 26.161556243896 38 1 delete